Time;durP1;ratioP1;P1;durP2;ratioP2;P2;SDS_P1;SDS_P2;PMS_P1;PMS_P2;Temp;Humidity;BMP_temperature;BMP_pressure;BME280_temperature;BME280_humidity;BME280_pressure;Samples;Min_cycle;Max_cycle;Signal;HPM_P1;HPM_P2
2024/04/09 00:01:42;;;;;;;7.27;5.30;;;;;;;18.19;81.72;99447.91;5377534;26;20240;-80
2024/04/09 00:04:08;;;;;;;9.03;4.73;;;;;;;18.21;82.09;99437.25;5383992;26;20266;-79
2024/04/09 00:06:36;;;;;;;5.63;4.37;;;;;;;18.16;81.82;99434.94;5383971;26;20242;-80
2024/04/09 00:09:05;;;;;;;6.57;4.53;;;;;;;18.16;82.52;99420.88;5384035;26;20236;-79
2024/04/09 00:11:35;;;;;;;8.07;4.77;;;;;;;18.19;83.04;99397.72;5383290;26;20274;-80
2024/04/09 00:14:04;;;;;;;6.83;4.13;;;;;;;18.19;82.64;99402.19;5384314;26;20239;-79
2024/04/09 00:16:33;;;;;;;8.27;4.67;;;;;;;18.16;82.50;99397.97;5383976;26;20235;-79
2024/04/09 00:18:59;;;;;;;8.03;4.50;;;;;;;18.16;83.01;99399.75;5383451;26;20239;-80
2024/04/09 00:21:28;;;;;;;8.83;4.83;;;;;;;18.17;83.25;99389.06;5384397;26;20242;-80
2024/04/09 00:23:57;;;;;;;7.70;4.87;;;;;;;18.17;83.30;99389.06;5378083;26;20257;-80
2024/04/09 00:26:31;;;;;;;5.60;4.60;;;;;;;18.18;83.39;99388.13;5384090;26;20281;-80
2024/04/09 00:28:57;;;;;;;6.13;4.40;;;;;;;18.20;83.35;99402.09;5384024;26;20257;-80
2024/04/09 00:31:25;;;;;;;7.43;5.20;;;;;;;17.75;84.22;99400.66;5383525;26;20725;-80
2024/04/09 00:33:51;;;;;;;7.57;5.73;;;;;;;17.19;88.44;99324.25;5383400;26;20239;-79
2024/04/09 00:36:19;;;;;;;7.73;5.50;;;;;;;17.35;88.49;99285.38;5383554;26;20816;-80
2024/04/09 00:38:47;;;;;;;10.97;5.80;;;;;;;17.47;88.29;99286.38;5383235;26;20243;-80
2024/04/09 00:41:15;;;;;;;10.43;4.63;;;;;;;17.63;87.39;99291.47;5383199;26;20242;-80
2024/04/09 00:43:44;;;;;;;6.30;4.13;;;;;;;17.80;86.26;99316.72;5383828;26;20236;-80
2024/04/09 00:46:13;;;;;;;7.13;4.77;;;;;;;17.84;85.00;99347.31;5384089;26;20579;-79
2024/04/09 00:48:39;;;;;;;7.10;4.43;;;;;;;17.84;84.92;99358.72;5381947;26;20278;-77
2024/04/09 00:51:12;;;;;;;6.33;4.00;;;;;;;17.90;85.13;99361.88;5382947;26;20282;-78
2024/04/09 00:53:40;;;;;;;5.60;4.17;;;;;;;17.92;84.65;99374.03;5383654;26;20286;-80
2024/04/09 00:56:11;;;;;;;8.50;4.77;;;;;;;17.94;84.08;99379.19;5382709;26;20255;-80
2024/04/09 00:58:36;;;;;;;9.40;4.00;;;;;;;17.96;84.16;99386.09;5382713;26;20270;-78
2024/04/09 01:01:07;;;;;;;9.77;4.40;;;;;;;17.94;84.43;99381.84;5382247;26;20333;-80
2024/04/09 01:03:32;;;;;;;5.97;4.23;;;;;;;17.98;83.93;99394.75;5380771;26;20232;-80
2024/04/09 01:06:06;;;;;;;8.67;3.80;;;;;;;17.96;84.33;99390.53;5383757;26;20286;-80
2024/04/09 01:08:31;;;;;;;6.83;3.27;;;;;;;18.00;83.41;99394.66;5384145;26;20344;-80
2024/04/09 01:11:00;;;;;;;8.47;3.60;;;;;;;18.05;83.54;99406.56;5382636;26;20732;-79
2024/04/09 01:13:25;;;;;;;7.13;3.30;;;;;;;18.05;83.38;99411.88;5383720;26;20277;-79
2024/04/09 01:15:54;;;;;;;5.67;3.70;;;;;;;18.00;83.70;99408.69;5380770;26;20239;-79
2024/04/09 01:18:22;;;;;;;4.73;3.47;;;;;;;17.99;83.60;99414.06;5382102;26;20282;-79
2024/04/09 01:20:50;;;;;;;5.47;3.60;;;;;;;18.03;83.67;99416.41;5383422;26;20296;-80
2024/04/09 01:23:18;;;;;;;6.23;3.40;;;;;;;17.97;84.55;99405.41;5383354;26;20226;-78
2024/04/09 01:25:46;;;;;;;6.30;3.17;;;;;;;17.98;84.01;99391.28;5382402;26;20239;-79
2024/04/09 01:28:13;;;;;;;5.77;3.50;;;;;;;17.96;84.31;99383.44;5383376;26;20285;-79
2024/04/09 01:30:41;;;;;;;5.90;3.40;;;;;;;17.98;83.83;99391.28;5382898;26;20272;-78
2024/04/09 01:33:06;;;;;;;9.33;3.83;;;;;;;17.98;83.99;99391.28;5382880;26;20276;-79
2024/04/09 01:35:35;;;;;;;11.20;4.60;;;;;;;17.95;84.10;99384.38;5382828;26;20283;-79
2024/04/09 01:38:02;;;;;;;6.50;3.27;;;;;;;17.96;83.75;99391.38;5382725;26;20242;-78
2024/04/09 01:40:34;;;;;;;6.63;3.17;;;;;;;17.98;83.19;99399.19;5382605;26;20244;-79
2024/04/09 01:42:59;;;;;;;14.27;3.93;;;;;;;18.00;82.88;99397.28;5382401;26;20235;-79
2024/04/09 01:45:27;;;;;;;6.90;3.33;;;;;;;17.91;83.06;99404.00;5381779;26;20235;-79
2024/04/09 01:47:52;;;;;;;8.27;3.90;;;;;;;17.92;83.12;99405.72;5381429;26;20231;-79
2024/04/09 01:50:20;;;;;;;4.43;3.37;;;;;;;17.93;83.17;99399.47;5381780;26;20729;-79
2024/04/09 01:52:48;;;;;;;5.03;3.47;;;;;;;17.93;83.18;99396.84;5381624;26;20238;-79
2024/04/09 01:55:17;;;;;;;4.97;2.83;;;;;;;17.94;83.02;99393.25;5380322;26;20251;-79
2024/04/09 01:57:46;;;;;;;9.00;4.07;;;;;;;17.86;83.30;99396.41;5380120;26;20749;-79
2024/04/09 02:00:19;;;;;;;6.43;3.30;;;;;;;17.83;84.20;99383.41;5381013;26;20246;-79
2024/04/09 02:02:46;;;;;;;5.53;3.50;;;;;;;17.86;84.16;99366.53;5381195;26;20328;-79
2024/04/09 02:05:14;;;;;;;5.30;3.50;;;;;;;17.82;84.40;99360.56;5381052;26;20247;-79
2024/04/09 02:07:40;;;;;;;6.27;3.60;;;;;;;17.81;84.45;99352.75;5382081;26;20236;-79
2024/04/09 02:10:11;;;;;;;7.80;4.07;;;;;;;17.80;84.73;99349.28;5379540;26;20297;-79
2024/04/09 02:12:38;;;;;;;8.03;3.93;;;;;;;17.81;84.32;99366.78;5382303;26;20261;-80
2024/04/09 02:15:12;;;;;;;5.23;3.10;;;;;;;17.80;84.68;99348.41;5380282;26;20236;-78
2024/04/09 02:17:38;;;;;;;6.23;3.50;;;;;;;17.77;84.91;99341.53;5380299;26;20228;-79
2024/04/09 02:20:09;;;;;;;8.70;4.20;;;;;;;17.79;84.67;99338.81;5380056;26;20809;-78
2024/04/09 02:22:35;;;;;;;6.83;4.10;;;;;;;17.76;84.75;99339.00;5380646;26;20235;-79
2024/04/09 02:25:03;;;;;;;9.67;4.63;;;;;;;17.66;84.50;99349.34;5380181;26;20269;-79
2024/04/09 02:27:28;;;;;;;8.73;4.03;;;;;;;17.71;84.54;99349.88;5380700;26;20281;-78
2024/04/09 02:29:59;;;;;;;8.30;4.60;;;;;;;17.76;83.66;99368.91;5384095;26;20247;-79
2024/04/09 02:32:27;;;;;;;5.03;3.90;;;;;;;17.83;83.88;99380.75;5386320;26;20242;-78
2024/04/09 02:34:55;;;;;;;7.10;3.87;;;;;;;17.82;84.04;99373.78;5385589;26;20270;-79
2024/04/09 02:37:21;;;;;;;7.87;3.60;;;;;;;17.78;84.57;99369.63;5386009;26;20231;-80
2024/04/09 02:39:49;;;;;;;9.87;3.77;;;;;;;17.66;84.86;99366.00;5385704;26;20802;-79
2024/04/09 02:42:14;;;;;;;9.53;3.87;;;;;;;17.60;85.53;99353.22;5384813;26;20238;-79
2024/04/09 02:44:44;;;;;;;9.80;4.20;;;;;;;17.70;84.91;99349.97;5384919;26;20811;-80
2024/04/09 02:47:09;;;;;;;9.80;4.70;;;;;;;17.64;84.34;99373.19;5384417;26;20267;-79
2024/04/09 02:49:43;;;;;;;9.93;4.57;;;;;;;17.47;81.21;99395.38;5384303;26;20251;-80
2024/04/09 02:52:11;;;;;;;14.27;3.80;;;;;;;17.60;79.33;99493.09;5385862;26;20235;-79
2024/04/09 02:54:39;;;;;;;13.57;4.20;;;;;;;17.69;79.14;99496.94;5384600;26;20273;-79
2024/04/09 02:57:05;;;;;;;20.60;4.43;;;;;;;17.52;73.96;99618.50;5382425;26;20365;-80
2024/04/09 02:59:36;;;;;;;11.77;4.67;;;;;;;17.70;75.82;99619.19;5385652;26;20249;-79
2024/04/09 03:02:03;;;;;;;8.03;4.60;;;;;;;17.71;77.49;99594.50;5384174;26;20234;-79
2024/04/09 03:04:32;;;;;;;16.13;4.60;;;;;;;17.85;77.53;99576.88;5383578;26;20733;-77
2024/04/09 03:07:00;;;;;;;10.83;4.63;;;;;;;17.94;78.16;99551.69;5383240;26;20364;-77
2024/04/09 03:09:29;;;;;;;13.63;4.60;;;;;;;17.99;79.01;99528.47;5382235;26;20646;-78
2024/04/09 03:11:55;;;;;;;13.83;5.10;;;;;;;18.02;79.87;99503.66;5393942;26;20227;-79
2024/04/09 03:14:25;;;;;;;14.23;5.23;;;;;;;17.97;80.66;99476.69;5395345;26;20282;-79
2024/04/09 03:16:51;;;;;;;11.10;4.67;;;;;;;18.01;81.29;99444.69;5398584;26;20345;-79
2024/04/09 03:19:19;;;;;;;6.60;3.97;;;;;;;18.04;81.44;99433.13;5396057;26;20239;-78
2024/04/09 03:21:45;;;;;;;7.70;6.47;;;;;;;17.75;81.77;99445.53;5392346;26;20226;-79
2024/04/09 03:24:15;;;;;;;8.70;6.27;;;;;;;17.86;81.68;99409.59;5385255;26;20281;-79
2024/04/09 03:26:43;;;;;;;10.03;6.70;;;;;;;17.85;82.42;99414.97;5385810;26;20250;-79
2024/04/09 03:29:11;;;;;;;9.53;6.47;;;;;;;17.78;82.74;99401.31;5383350;26;20339;-78
2024/04/09 03:31:36;;;;;;;10.00;6.60;;;;;;;17.50;82.28;99396.97;5384008;26;20274;-79
2024/04/09 03:34:04;;;;;;;8.47;6.27;;;;;;;17.61;81.76;99397.13;5383558;26;20250;-79
2024/04/09 03:36:30;;;;;;;7.00;5.23;;;;;;;17.73;82.08;99389.38;5385015;26;20234;-79
2024/04/09 03:38:58;;;;;;;11.10;5.37;;;;;;;17.78;83.00;99377.56;5384339;26;20701;-78
2024/04/09 03:41:29;;;;;;;8.77;5.37;;;;;;;17.82;83.30;99354.44;5382899;26;20236;-79
2024/04/09 03:43:54;;;;;;;14.43;4.70;;;;;;;17.84;83.23;99342.03;5385473;26;20282;-79
2024/04/09 03:46:22;;;;;;;12.10;5.10;;;;;;;17.86;84.20;99327.78;5385024;26;20252;-78
2024/04/09 03:48:49;;;;;;;6.50;4.00;;;;;;;17.82;84.66;99310.41;5385132;26;20622;-78
2024/04/09 03:51:18;;;;;;;13.40;4.03;;;;;;;17.86;84.27;99308.44;5382267;26;20368;-78
2024/04/09 03:53:45;;;;;;;15.83;3.93;;;;;;;17.81;84.05;99316.63;5383121;26;20322;-79
2024/04/09 03:56:16;;;;;;;10.57;3.50;;;;;;;17.70;83.98;99337.63;5381528;26;20273;-78
2024/04/09 03:58:46;;;;;;;18.97;4.03;;;;;;;17.38;71.12;99471.63;5382430;26;20291;-77
2024/04/09 04:01:15;;;;;;;14.33;4.47;;;;;;;17.85;69.07;99664.00;5381814;26;20278;-78
2024/04/09 04:03:41;;;;;;;19.67;4.77;;;;;;;18.00;71.75;99679.84;5383158;26;20239;-78
2024/04/09 04:06:09;;;;;;;11.60;3.30;;;;;;;18.02;74.61;99654.19;5382747;26;20272;-79
2024/04/09 04:08:36;;;;;;;17.43;3.93;;;;;;;18.01;75.60;99619.00;5383515;26;20231;-79
2024/04/09 04:11:05;;;;;;;14.07;3.93;;;;;;;17.94;76.49;99587.78;5382862;26;20593;-79
2024/04/09 04:13:32;;;;;;;12.83;3.77;;;;;;;18.01;76.16;99558.25;5383952;26;20274;-77
2024/04/09 04:16:06;;;;;;;15.33;3.60;;;;;;;17.92;78.68;99505.19;5382743;26;20234;-77
2024/04/09 04:18:34;;;;;;;16.67;4.20;;;;;;;17.90;75.70;99539.63;5370523;26;20324;-78
2024/04/09 04:21:03;;;;;;;9.33;3.97;;;;;;;18.02;77.16;99528.28;5381388;26;20281;-79
2024/04/09 04:23:28;;;;;;;10.53;4.03;;;;;;;18.06;78.29;99497.25;5369036;26;20265;-79
2024/04/09 04:26:00;;;;;;;10.20;3.63;;;;;;;18.10;78.66;99474.13;5382144;26;20241;-78
2024/04/09 04:28:25;;;;;;;10.93;3.67;;;;;;;18.10;78.84;99450.34;5383039;26;20230;-79
2024/04/09 04:30:53;;;;;;;12.50;3.50;;;;;;;18.09;79.11;99444.19;5382163;26;20289;-79
2024/04/09 04:33:21;;;;;;;12.60;3.53;;;;;;;18.11;79.02;99442.31;5383176;26;20239;-80
2024/04/09 04:35:52;;;;;;;9.30;3.83;;;;;;;18.09;79.06;99431.00;5382616;26;20272;-80
2024/04/09 04:38:19;;;;;;;9.90;3.53;;;;;;;18.07;79.68;99424.97;5382393;26;20239;-81
2024/04/09 04:40:48;;;;;;;10.40;3.23;;;;;;;17.98;79.42;99425.59;5383240;26;20325;-78
2024/04/09 04:43:14;;;;;;;13.60;3.93;;;;;;;18.01;79.65;99417.47;5383653;26;20632;-80
2024/04/09 04:45:42;;;;;;;9.67;4.00;;;;;;;18.00;79.83;99416.63;5383785;26;20239;-82
2024/04/09 04:48:08;;;;;;;18.37;3.63;;;;;;;18.02;79.87;99405.97;5381913;26;20239;-79
2024/04/09 04:50:39;;;;;;;10.40;3.80;;;;;;;18.02;80.08;99405.97;5383380;26;20242;-77
2024/04/09 04:53:05;;;;;;;16.07;3.90;;;;;;;17.97;80.21;99408.88;5380992;26;20237;-80
2024/04/09 04:55:36;;;;;;;16.40;4.77;;;;;;;17.93;79.29;99425.03;5375209;26;20289;-79
2024/04/09 04:58:02;;;;;;;14.67;3.63;;;;;;;17.91;78.69;99440.97;5377365;26;20293;-79
2024/04/09 05:00:30;;;;;;;13.17;3.07;;;;;;;17.80;76.80;99488.31;5384138;26;20245;-78
2024/04/09 05:02:56;;;;;;;17.20;3.43;;;;;;;17.85;76.17;99524.06;5378962;26;20234;-82
2024/04/09 05:05:24;;;;;;;18.83;4.00;;;;;;;17.78;76.82;99512.19;5381220;26;20295;-80
2024/04/09 05:07:52;;;;;;;20.93;3.97;;;;;;;17.89;76.24;99530.00;5381638;26;20238;-79
2024/04/09 05:10:20;;;;;;;15.33;4.27;;;;;;;17.93;76.39;99526.22;5378329;26;20323;-79
2024/04/09 05:12:47;;;;;;;19.23;4.10;;;;;;;17.94;78.20;99503.28;5382330;26;20239;-79
2024/04/09 05:15:16;;;;;;;13.20;4.33;;;;;;;17.83;78.57;99473.16;5383006;26;20269;-79
2024/04/09 05:17:43;;;;;;;12.93;3.40;;;;;;;17.78;79.54;99453.25;5382625;26;20284;-81
2024/04/09 05:20:12;;;;;;;18.17;4.47;;;;;;;17.75;80.01;99434.97;5382898;26;20761;-79
2024/04/09 05:22:39;;;;;;;20.27;4.30;;;;;;;17.72;78.16;99451.00;5382818;26;20381;-81
2024/04/09 05:25:11;;;;;;;19.70;3.57;;;;;;;17.74;77.58;99483.41;5382793;26;20235;-78
2024/04/09 05:27:37;;;;;;;16.37;4.13;;;;;;;17.72;70.73;99588.25;5382886;26;20712;-79
2024/04/09 05:30:06;;;;;;;13.40;3.90;;;;;;;17.80;73.75;99602.69;5382167;26;20242;-79
2024/04/09 05:32:35;;;;;;;16.10;4.50;;;;;;;17.79;68.84;99692.53;5382217;26;20240;-79
2024/04/09 05:35:04;;;;;;;14.17;3.37;;;;;;;17.89;67.20;99770.28;5381312;26;20325;-82
2024/04/09 05:37:30;;;;;;;19.70;4.10;;;;;;;17.95;60.69;99911.66;5382899;26;20285;-80
2024/04/09 05:39:58;;;;;;;13.83;4.00;;;;;;;18.14;65.12;100047.00;5382872;26;20737;-81
2024/04/09 05:42:26;;;;;;;11.30;5.90;;;;;;;17.56;76.24;99833.78;5382289;26;20246;-80
2024/04/09 05:44:55;;;;;;;11.40;5.10;;;;;;;17.48;78.38;99710.19;5381492;26;20290;-79
2024/04/09 05:47:22;;;;;;;13.20;4.97;;;;;;;17.75;77.25;99662.00;5383203;26;20236;-80
2024/04/09 05:49:50;;;;;;;12.93;4.83;;;;;;;17.75;77.58;99635.59;5382569;26;20247;-79
2024/04/09 05:52:16;;;;;;;17.83;5.23;;;;;;;17.85;75.86;99640.22;5377984;26;20818;-80
2024/04/09 05:54:46;;;;;;;14.47;4.53;;;;;;;17.87;73.88;99687.66;5382997;26;20231;-80
2024/04/09 05:57:12;;;;;;;19.37;4.17;;;;;;;17.97;75.02;99696.72;5381984;26;20238;-82
2024/04/09 05:59:43;;;;;;;15.40;4.40;;;;;;;18.01;74.38;99705.31;5382900;26;20238;-80
2024/04/09 06:02:08;;;;;;;14.20;4.30;;;;;;;18.11;73.44;99730.19;5382531;26;20595;-78
2024/04/09 06:04:37;;;;;;;16.57;4.50;;;;;;;18.09;73.01;99760.31;5383285;26;20242;-81
2024/04/09 06:07:03;;;;;;;11.73;4.17;;;;;;;18.02;71.55;99796.81;5385733;26;20273;-81
2024/04/09 06:09:31;;;;;;;13.43;4.13;;;;;;;18.09;72.19;99799.91;5385614;26;20246;-80
2024/04/09 06:11:57;;;;;;;10.53;4.10;;;;;;;18.04;71.69;99805.50;5384167;26;20239;-78
2024/04/09 06:14:26;;;;;;;11.83;4.03;;;;;;;18.06;72.48;99803.59;5385358;26;20243;-78
2024/04/09 06:16:54;;;;;;;15.70;4.57;;;;;;;18.10;72.25;99805.13;5386453;26;20268;-81
2024/04/09 06:19:24;;;;;;;11.63;3.90;;;;;;;18.14;70.80;99840.97;5385874;26;20348;-80
2024/04/09 06:21:49;;;;;;;15.70;4.50;;;;;;;18.16;71.33;99865.50;5384821;26;20624;-79
2024/04/09 06:24:17;;;;;;;18.93;4.80;;;;;;;18.04;69.23;99884.72;5384462;26;20239;-79
2024/04/09 06:26:43;;;;;;;17.77;4.83;;;;;;;18.19;68.40;99919.94;5384821;26;20234;-79
2024/04/09 06:29:11;;;;;;;19.67;4.30;;;;;;;18.13;67.56;99946.72;5385872;26;20286;-79
2024/04/09 06:31:37;;;;;;;19.47;4.27;;;;;;;18.19;67.63;99978.91;5385362;26;20344;-80
2024/04/09 06:34:07;;;;;;;17.43;4.50;;;;;;;18.35;67.55;99988.56;5386085;26;20722;-79
2024/04/09 06:36:33;;;;;;;21.87;5.07;;;;;;;18.09;67.38;100001.50;5384932;26;20239;-80
2024/04/09 06:39:01;;;;;;;20.77;4.33;;;;;;;18.24;68.94;99960.16;5385825;26;20273;-79
2024/04/09 06:41:34;;;;;;;14.89;4.21;;;;;;;18.05;69.66;99926.03;4955939;26;10002667;-80
2024/04/09 06:44:02;;;;;;;14.57;4.77;;;;;;;17.70;71.66;99851.47;5381295;26;20271;-81
2024/04/09 06:46:29;;;;;;;15.93;5.13;;;;;;;17.64;73.25;99821.00;5381241;26;20231;-80
2024/04/09 06:48:59;;;;;;;18.27;4.00;;;;;;;17.70;72.98;99769.63;5380458;26;20231;-80
2024/04/09 06:51:27;;;;;;;14.00;3.70;;;;;;;17.81;71.96;99783.91;5380778;26;20258;-80
2024/04/09 06:53:55;;;;;;;13.40;5.07;;;;;;;17.85;73.27;99821.56;5381334;26;20237;-80
2024/04/09 06:56:20;;;;;;;18.80;4.47;;;;;;;17.95;70.46;99841.19;5379430;26;20237;-80
2024/04/09 06:58:49;;;;;;;13.10;4.33;;;;;;;18.21;70.48;99855.47;5381042;26;20299;-79
2024/04/09 07:01:15;;;;;;;13.83;4.73;;;;;;;18.38;69.66;99861.56;5380147;26;20335;-80
2024/04/09 07:03:43;;;;;;;14.67;4.60;;;;;;;18.30;69.69;99867.31;5380512;26;20241;-80
2024/04/09 07:06:08;;;;;;;11.83;4.07;;;;;;;18.24;69.74;99881.72;5381392;26;20279;-80
2024/04/09 07:08:39;;;;;;;20.60;4.30;;;;;;;18.12;70.92;99879.84;5381436;26;20312;-82
2024/04/09 07:11:04;;;;;;;15.80;4.17;;;;;;;18.27;70.62;99875.41;5379757;26;20246;-81
2024/04/09 07:13:33;;;;;;;17.53;5.33;;;;;;;18.43;71.15;99860.34;5380713;26;20339;-81
2024/04/09 07:15:59;;;;;;;13.07;4.33;;;;;;;18.61;72.46;99825.78;5378940;26;20298;-81
2024/04/09 07:18:27;;;;;;;17.07;3.93;;;;;;;18.45;76.28;99821.47;5378814;26;20355;-79
2024/04/09 07:20:53;;;;;;;11.97;4.20;;;;;;;18.57;77.19;99724.69;5381192;26;20255;-80
2024/04/09 07:23:21;;;;;;;13.37;3.70;;;;;;;18.65;76.82;99663.38;5380677;26;20335;-80
2024/04/09 07:25:49;;;;;;;14.60;4.30;;;;;;;18.66;72.52;99755.81;5380142;26;20238;-81
2024/04/09 07:28:17;;;;;;;10.40;3.33;;;;;;;18.40;76.81;99746.06;5381321;26;20239;-80
2024/04/09 07:30:45;;;;;;;9.60;4.27;;;;;;;18.06;74.66;99756.91;5380359;26;20234;-79
2024/04/09 07:33:10;;;;;;;14.03;3.80;;;;;;;18.33;74.16;99766.69;5380955;26;20231;-81
2024/04/09 07:35:39;;;;;;;18.83;4.23;;;;;;;18.52;74.42;99779.63;5380747;26;20273;-81
2024/04/09 07:38:04;;;;;;;8.63;4.23;;;;;;;18.66;74.45;99779.59;5380987;26;20274;-80
2024/04/09 07:40:32;;;;;;;14.17;4.27;;;;;;;18.54;74.05;99801.53;5379949;26;20286;-78
2024/04/09 07:43:00;;;;;;;13.20;3.67;;;;;;;18.67;74.34;99806.88;5393406;26;20273;-78
2024/04/09 07:45:29;;;;;;;11.77;3.70;;;;;;;18.50;74.63;99799.19;5381253;26;20242;-81
2024/04/09 07:47:55;;;;;;;7.90;3.47;;;;;;;18.27;75.08;99798.78;5380822;26;20226;-82
2024/04/09 07:50:23;;;;;;;9.57;3.07;;;;;;;18.46;75.00;99786.16;5379903;26;20277;-78
2024/04/09 07:52:48;;;;;;;11.40;3.53;;;;;;;18.52;73.26;99816.63;5381024;26;20289;-80
2024/04/09 07:55:17;;;;;;;9.50;2.90;;;;;;;18.64;73.10;99838.81;5380037;26;20638;-80
2024/04/09 07:57:43;;;;;;;11.43;3.10;;;;;;;18.43;73.33;99870.91;5381677;26;20234;-80
2024/04/09 08:00:17;;;;;;;9.57;2.90;;;;;;;18.74;73.34;99860.25;5380954;26;20247;-80
2024/04/09 08:02:43;;;;;;;6.13;2.53;;;;;;;18.57;72.07;99885.94;5381560;26;20281;-80
2024/04/09 08:05:12;;;;;;;7.33;2.50;;;;;;;18.52;71.71;99895.09;5380409;26;20569;-81
2024/04/09 08:07:39;;;;;;;7.27;2.83;;;;;;;18.53;72.34;99899.41;5382009;26;20294;-81
2024/04/09 08:10:11;;;;;;;7.00;2.87;;;;;;;18.58;72.42;99887.63;5381546;26;20331;-80
2024/04/09 08:12:37;;;;;;;8.40;3.00;;;;;;;18.28;74.73;99871.00;5381800;26;20247;-81
2024/04/09 08:15:06;;;;;;;8.53;3.40;;;;;;;18.53;74.68;99814.84;5382222;26;20308;-79
2024/04/09 08:17:36;;;;;;;8.27;2.47;;;;;;;18.47;74.57;99810.78;5382128;26;20239;-82
2024/04/09 08:20:07;;;;;;;7.63;2.57;;;;;;;18.39;75.78;99799.81;5381348;26;20304;-81
2024/04/09 08:22:33;;;;;;;12.93;2.93;;;;;;;18.55;75.01;99787.38;5382002;26;20303;-80
2024/04/09 08:25:01;;;;;;;5.33;1.87;;;;;;;18.28;72.53;99834.84;5380706;26;20291;-80
2024/04/09 08:27:26;;;;;;;6.73;2.10;;;;;;;18.25;71.45;99877.28;5380753;26;20305;-82
2024/04/09 08:29:55;;;;;;;5.80;2.00;;;;;;;18.12;72.41;99906.25;5382243;26;20247;-80
2024/04/09 08:32:20;;;;;;;4.90;2.17;;;;;;;18.02;72.47;99897.16;5381119;26;20335;-79
2024/04/09 08:34:51;;;;;;;4.87;2.00;;;;;;;17.93;73.19;99890.63;5380640;26;20237;-79
2024/04/09 08:37:16;;;;;;;6.67;2.03;;;;;;;17.98;73.90;99885.94;5381608;26;20817;-81
2024/04/09 08:39:44;;;;;;;6.10;1.50;;;;;;;17.90;73.35;99911.06;5382464;26;20237;-82
2024/04/09 08:42:09;;;;;;;4.17;1.90;;;;;;;18.23;73.38;99903.78;5387779;26;20760;-80
2024/04/09 08:44:39;;;;;;;5.20;1.87;;;;;;;18.26;73.21;99916.00;5385664;26;20269;-79
2024/04/09 08:47:08;;;;;;;5.43;2.00;;;;;;;17.99;74.69;99898.19;5382961;26;20239;-81
2024/04/09 08:49:36;;;;;;;9.33;2.40;;;;;;;17.89;75.15;99889.09;5380164;26;20243;-79
2024/04/09 08:52:07;;;;;;;3.90;1.70;;;;;;;17.89;75.20;99875.06;5380835;26;20234;-82
2024/04/09 08:54:35;;;;;;;6.77;1.87;;;;;;;18.01;75.92;99858.47;5379492;26;20239;-81
2024/04/09 08:57:01;;;;;;;5.70;1.80;;;;;;;17.97;76.31;99847.25;5379626;26;20235;-83
2024/04/09 08:59:31;;;;;;;5.87;2.20;;;;;;;18.22;76.08;99845.78;5379596;26;20278;-80
2024/04/09 09:02:03;;;;;;;6.97;2.00;;;;;;;18.37;75.96;99844.00;5379860;26;20774;-80
2024/04/09 09:04:36;;;;;;;5.80;2.03;;;;;;;18.37;76.00;99849.28;5379510;26;20233;-79
2024/04/09 09:07:05;;;;;;;7.13;2.53;;;;;;;18.57;75.08;99856.00;5378293;26;20235;-81
2024/04/09 09:09:34;;;;;;;6.43;2.57;;;;;;;18.42;74.00;99897.44;5378613;26;20289;-79
2024/04/09 09:12:00;;;;;;;7.10;2.27;;;;;;;18.48;75.46;99902.34;5378238;26;20230;-82
2024/04/09 09:14:28;;;;;;;7.23;2.93;;;;;;;18.33;74.44;99927.03;5379414;26;20232;-80
2024/04/09 09:16:59;;;;;;;6.10;3.90;;;;;;;18.44;74.48;99932.53;5364911;26;20234;-79
2024/04/09 09:19:30;;;;;;;7.27;4.40;;;;;;;18.66;73.10;99943.50;5378142;26;20251;-77
2024/04/09 09:21:56;;;;;;;5.73;4.07;;;;;;;18.60;73.79;99957.09;5380080;26;20579;-80
2024/04/09 09:24:28;;;;;;;6.87;5.30;;;;;;;18.72;74.23;99952.03;5379034;26;20281;-79
2024/04/09 09:26:58;;;;;;;7.03;6.30;;;;;;;18.84;73.09;99986.53;5377579;26;20238;-79
2024/04/09 09:29:26;;;;;;;6.53;5.70;;;;;;;18.96;72.31;99987.59;5379222;26;20422;-80
2024/04/09 09:31:52;;;;;;;10.50;6.17;;;;;;;18.79;73.90;99996.56;5379512;26;20632;-82
2024/04/09 09:34:21;;;;;;;6.87;6.00;;;;;;;19.03;73.26;99980.16;5378856;26;20231;-78
2024/04/09 09:36:48;;;;;;;8.33;6.13;;;;;;;18.96;73.17;99992.03;5379308;26;20356;-80
2024/04/09 09:39:17;;;;;;;7.07;6.10;;;;;;;18.89;73.01;99994.22;5378085;26;20925;-79
2024/04/09 09:41:46;;;;;;;8.37;6.20;;;;;;;18.92;72.94;99996.66;5378008;26;20753;-80
2024/04/09 09:44:16;;;;;;;8.17;6.60;;;;;;;18.96;73.08;99981.44;5379437;26;20305;-80
2024/04/09 09:46:44;;;;;;;9.40;7.40;;;;;;;18.74;75.17;99964.22;5379881;26;20242;-81
2024/04/09 09:49:13;;;;;;;9.03;6.73;;;;;;;18.72;76.15;99925.59;5379085;26;20243;-80
2024/04/09 09:51:40;;;;;;;9.33;7.20;;;;;;;18.62;75.75;99914.72;5378882;26;20258;-82
2024/04/09 09:54:08;;;;;;;7.13;6.47;;;;;;;18.50;74.82;99931.34;5379421;26;20234;-80
2024/04/09 09:56:35;;;;;;;9.03;7.03;;;;;;;18.44;75.80;99916.69;5378517;26;20269;-80
2024/04/09 09:59:07;;;;;;;5.97;5.43;;;;;;;18.42;74.48;99948.50;5378875;26;20239;-81
2024/04/09 10:01:34;;;;;;;11.03;6.63;;;;;;;18.58;75.10;99939.66;5379041;26;20282;-80
2024/04/09 10:04:05;;;;;;;7.73;6.20;;;;;;;18.51;74.68;99952.38;5379108;26;20248;-80
2024/04/09 10:06:30;;;;;;;7.17;5.37;;;;;;;18.49;74.60;99932.25;5379073;26;20246;-80
2024/04/09 10:08:59;;;;;;;5.67;5.00;;;;;;;18.64;73.68;99965.72;5364265;26;20275;-81
2024/04/09 10:11:24;;;;;;;9.37;6.17;;;;;;;18.87;73.78;99968.78;5377516;26;20312;-79
2024/04/09 10:13:53;;;;;;;6.73;5.07;;;;;;;18.85;73.80;99985.59;5378669;26;20242;-78
2024/04/09 10:16:22;;;;;;;8.20;5.73;;;;;;;19.05;74.92;99983.53;5378866;26;20285;-82
2024/04/09 10:18:50;;;;;;;8.70;5.63;;;;;;;19.27;74.91;99966.34;5378529;26;21512;-79
2024/04/09 10:21:26;;;;;;;7.63;5.47;;;;;;;19.30;74.65;99979.34;5379459;26;20239;-80
2024/04/09 10:23:58;;;;;;;5.07;4.67;;;;;;;19.21;73.14;99997.50;5378428;26;20273;-79
2024/04/09 10:26:25;;;;;;;5.70;5.13;;;;;;;19.37;73.41;100005.34;5378051;26;20278;-80
2024/04/09 10:29:04;;;;;;;7.17;5.63;;;;;;;19.36;73.08;100016.88;5378965;26;20745;-79
2024/04/09 10:31:42;;;;;;;5.90;5.40;;;;;;;19.21;73.30;100023.13;5378156;26;20289;-81
2024/04/09 10:34:10;;;;;;;6.20;5.47;;;;;;;19.06;71.80;100056.66;5378561;26;20250;-81
2024/04/09 10:36:36;;;;;;;5.97;5.30;;;;;;;19.12;72.61;100069.50;5364331;26;20235;-79
2024/04/09 10:39:07;;;;;;;5.97;5.20;;;;;;;18.96;73.02;100063.44;5378418;26;20412;-80
2024/04/09 10:41:32;;;;;;;6.50;5.33;;;;;;;19.04;73.82;100058.53;5378487;26;20234;-79
2024/04/09 10:44:00;;;;;;;5.50;5.00;;;;;;;19.29;73.32;100059.72;5378887;26;20373;-80
2024/04/09 10:46:26;;;;;;;6.50;5.57;;;;;;;19.16;72.76;100076.31;5377689;26;20995;-79
2024/04/09 10:48:56;;;;;;;6.03;5.43;;;;;;;19.44;71.72;100087.88;5376923;26;20303;-79
2024/04/09 10:51:22;;;;;;;6.50;5.77;;;;;;;19.55;70.75;100122.47;5378488;26;20575;-79
2024/04/09 10:53:50;;;;;;;5.80;5.20;;;;;;;19.33;70.09;100141.47;5382202;26;20277;-78
2024/04/09 10:56:15;;;;;;;5.23;3.63;;;;;;;19.42;69.74;100167.41;5381222;26;20621;-79
2024/04/09 10:58:43;;;;;;;6.80;2.80;;;;;;;19.16;65.95;100221.84;5382150;26;20239;-80
2024/04/09 11:01:12;;;;;;;3.30;3.00;;;;;;;19.28;68.19;100240.59;5381380;26;20281;-79
2024/04/09 11:03:40;;;;;;;2.80;2.60;;;;;;;19.21;67.63;100256.84;5380839;26;20236;-81
2024/04/09 11:06:12;;;;;;;3.23;3.03;;;;;;;19.22;67.96;100268.28;5382279;26;20235;-80
2024/04/09 11:08:41;;;;;;;3.73;3.03;;;;;;;18.96;68.88;100257.38;5381627;26;20679;-80
2024/04/09 11:11:08;;;;;;;4.13;3.23;;;;;;;18.87;68.68;100254.41;5380387;26;20239;-81
2024/04/09 11:13:36;;;;;;;4.07;3.67;;;;;;;18.96;69.16;100235.38;5381771;26;20277;-79
2024/04/09 11:16:02;;;;;;;4.57;3.00;;;;;;;18.42;69.48;100276.19;5381436;26;20232;-81
2024/04/09 11:18:31;;;;;;;3.50;3.30;;;;;;;18.39;69.77;100246.44;5381831;26;20237;-79
2024/04/09 11:20:59;;;;;;;3.73;3.00;;;;;;;18.50;69.77;100230.84;5380567;26;20254;-81
2024/04/09 11:23:31;;;;;;;3.73;3.53;;;;;;;18.54;70.09;100215.69;5380619;26;20239;-80
2024/04/09 11:25:59;;;;;;;5.77;4.03;;;;;;;17.87;75.24;100189.34;5379989;26;20282;-80
2024/04/09 11:28:29;;;;;;;3.40;3.10;;;;;;;16.96;82.01;100042.81;5381403;26;20348;-80
2024/04/09 11:30:56;;;;;;;2.70;2.43;;;;;;;16.70;85.30;99909.72;5379780;26;20380;-79
2024/04/09 11:33:25;;;;;;;2.43;1.97;;;;;;;16.20;88.13;99829.78;5380644;26;20238;-79